createdAt,value
2018-12-04T00:00:10.136Z,88.79
2018-12-04T00:05:32.018Z,88.45
2018-12-04T00:07:59.461Z,88.21
2018-12-04T00:13:48.335Z,87.25
2018-12-04T00:19:13.445Z,86.29
2018-12-04T00:21:40.869Z,86.01
2018-12-04T00:24:08.325Z,85.92
2018-12-04T00:26:35.737Z,85.78
2018-12-04T00:29:03.186Z,85.57
2018-12-04T00:31:30.899Z,85.56
2018-12-04T00:33:58.354Z,85.60
2018-12-04T00:36:25.765Z,85.73
2018-12-04T00:38:53.204Z,86.06
2018-12-04T00:41:20.644Z,86.11
2018-12-04T00:43:48.081Z,86.10
2018-12-04T00:46:15.547Z,85.99
2018-12-04T00:49:02.370Z,85.86
2018-12-04T00:57:53.450Z,86.21
2018-12-04T01:00:20.891Z,86.33
2018-12-04T01:02:48.391Z,86.02
2018-12-04T01:07:50.223Z,85.87
2018-12-04T01:10:17.657Z,85.94
2018-12-04T01:13:40.845Z,85.51
2018-12-04T01:28:12.713Z,85.18
2018-12-04T01:30:40.154Z,85.14
2018-12-04T01:33:07.582Z,85.22
2018-12-04T01:35:34.993Z,85.04
2018-12-04T01:38:22.108Z,85.12
2018-12-04T01:41:29.158Z,84.87
2018-12-04T01:43:56.586Z,84.82
2018-12-04T01:46:29.024Z,84.76
2018-12-04T01:48:56.447Z,84.55
2018-12-04T01:51:23.886Z,84.62
2018-12-04T01:53:51.318Z,84.79
2018-12-04T01:56:18.825Z,85.28
2018-12-04T02:01:58.627Z,84.79
2018-12-04T02:04:29.141Z,85.11
2018-12-04T02:06:56.557Z,84.83
2018-12-04T02:09:23.989Z,85.38
2018-12-04T02:11:51.402Z,85.45
2018-12-04T02:14:18.993Z,85.39
2018-12-04T02:16:46.405Z,85.54
2018-12-04T02:19:28.820Z,85.55
2018-12-04T02:21:56.234Z,85.77
2018-12-04T02:24:38.473Z,85.98
2018-12-04T02:27:05.887Z,85.76
2018-12-04T02:29:33.294Z,85.77
2018-12-04T02:32:00.912Z,85.99
2018-12-04T02:34:36.781Z,86.23
2018-12-04T02:37:04.266Z,85.86
2018-12-04T02:39:31.724Z,85.82
2018-12-04T02:41:59.231Z,85.63
2018-12-04T02:44:26.665Z,85.36
2018-12-04T02:49:56.030Z,86.18
2018-12-04T02:55:17.595Z,85.92
2018-12-04T02:57:44.995Z,86.01
2018-12-04T03:00:12.428Z,86.14
2018-12-04T03:02:40.020Z,86.26
2018-12-04T03:05:07.508Z,86.20
2018-12-04T03:07:38.740Z,86.58
2018-12-04T03:10:09.393Z,86.60
2018-12-04T03:12:36.988Z,86.56
2018-12-04T03:15:04.979Z,86.62
2018-12-04T03:17:32.404Z,86.29
2018-12-04T03:19:59.810Z,86.59
2018-12-04T03:22:27.229Z,86.70
2018-12-04T03:24:54.638Z,86.76
2018-12-04T03:27:22.075Z,86.76
2018-12-04T03:29:49.492Z,86.79
2018-12-04T03:32:16.925Z,86.83
2018-12-04T03:34:44.480Z,86.76
2018-12-04T03:37:11.999Z,86.43
2018-12-04T03:39:39.792Z,86.10
2018-12-04T03:42:07.217Z,86.25
2018-12-04T03:44:34.644Z,86.52
2018-12-04T03:47:02.063Z,86.17
2018-12-04T03:49:29.494Z,85.53
2018-12-04T03:51:56.909Z,85.80
2018-12-04T03:54:24.348Z,85.72
2018-12-04T03:56:57.915Z,86.00
2018-12-04T03:59:25.422Z,85.87
2018-12-04T04:01:52.929Z,86.08
2018-12-04T04:04:24.374Z,85.82
2018-12-04T04:06:51.825Z,85.74
2018-12-04T04:09:19.241Z,85.73
2018-12-04T04:11:47.736Z,84.96
2018-12-04T04:14:15.144Z,84.71
2018-12-04T04:16:42.912Z,85.41
2018-12-04T04:19:10.459Z,85.18
2018-12-04T04:21:37.903Z,84.93
2018-12-04T04:24:05.318Z,85.18
2018-12-04T04:26:32.734Z,85.30
2018-12-04T04:29:04.985Z,85.29
2018-12-04T04:31:49.522Z,85.14
2018-12-04T04:34:16.953Z,85.20
2018-12-04T04:36:44.385Z,85.06
2018-12-04T04:39:16.683Z,84.63
2018-12-04T04:41:44.144Z,84.79
2018-12-04T04:44:11.695Z,84.96
2018-12-04T04:46:39.125Z,85.06
2018-12-04T04:49:06.553Z,85.07
2018-12-04T04:51:33.981Z,84.88
2018-12-04T04:54:08.286Z,84.67
2018-12-04T04:56:35.691Z,84.85
2018-12-04T04:59:03.143Z,85.40
2018-12-04T05:01:30.585Z,84.55
2018-12-04T05:03:58.024Z,84.99
2018-12-04T05:06:25.467Z,85.31
2018-12-04T05:08:52.910Z,84.68
2018-12-04T05:11:20.341Z,84.83
2018-12-04T05:13:47.767Z,84.56
2018-12-04T05:16:15.200Z,85.22
2018-12-04T05:18:42.649Z,85.29
2018-12-04T05:21:10.091Z,85.72
2018-12-04T05:23:37.776Z,85.36
2018-12-04T05:26:05.283Z,85.81
2018-12-04T05:28:32.720Z,85.92
2018-12-04T05:33:50.415Z,85.42
2018-12-04T05:36:17.910Z,85.43
2018-12-04T05:38:45.361Z,85.66
2018-12-04T05:41:12.807Z,85.79
2018-12-04T05:43:41.208Z,85.76
2018-12-04T05:46:08.631Z,86.50
2018-12-04T05:48:36.053Z,86.18
2018-12-04T05:51:03.490Z,86.57
2018-12-04T05:53:32.251Z,86.46
2018-12-04T05:56:01.635Z,86.37
2018-12-04T05:58:29.054Z,86.35
2018-12-04T06:00:56.499Z,86.56
2018-12-04T06:03:28.811Z,86.31
2018-12-04T06:05:56.248Z,86.63
2018-12-04T06:08:25.619Z,86.46
2018-12-04T06:10:53.939Z,86.57
2018-12-04T06:13:21.382Z,86.33
2018-12-04T06:15:54.033Z,86.30
2018-12-04T06:18:26.369Z,86.20
2018-12-04T06:20:53.885Z,85.74
2018-12-04T06:23:21.394Z,86.05
2018-12-04T06:25:48.800Z,86.22
2018-12-04T06:28:16.230Z,86.04
2018-12-04T06:30:43.688Z,86.00
2018-12-04T06:33:11.096Z,85.66
2018-12-04T06:35:44.671Z,85.67
2018-12-04T06:38:12.089Z,85.88
2018-12-04T06:40:44.380Z,85.81
2018-12-04T06:46:02.297Z,85.22
2018-12-04T06:48:29.779Z,85.21
2018-12-04T06:50:57.218Z,85.04
2018-12-04T06:53:24.652Z,85.05
2018-12-04T06:55:52.181Z,84.60
2018-12-04T06:58:21.705Z,84.88
2018-12-04T07:00:53.067Z,85.18
2018-12-04T07:03:21.497Z,85.21
2018-12-04T07:05:51.090Z,85.53
2018-12-04T07:08:18.551Z,85.07
2018-12-04T07:10:50.042Z,85.23
2018-12-04T07:13:17.470Z,84.85
2018-12-04T07:15:49.908Z,84.88
2018-12-04T07:18:17.326Z,85.24
2018-12-04T07:20:44.759Z,85.05
2018-12-04T07:23:12.277Z,85.68
2018-12-04T07:25:39.695Z,85.79
2018-12-04T07:28:07.130Z,85.56
2018-12-04T07:30:34.539Z,85.38
2018-12-04T07:33:06.865Z,85.43
2018-12-04T07:35:34.308Z,85.35
2018-12-04T07:38:01.731Z,85.37
2018-12-04T07:43:59.491Z,85.19
2018-12-04T07:46:26.993Z,85.40
2018-12-04T07:48:54.703Z,85.51
2018-12-04T07:51:22.112Z,85.45
2018-12-04T07:53:52.344Z,85.88
2018-12-04T07:56:24.713Z,86.21
2018-12-04T07:58:52.199Z,86.02
2018-12-04T08:01:19.848Z,86.40
2018-12-04T08:09:26.269Z,85.76
2018-12-04T08:20:25.606Z,85.74
2018-12-04T08:22:53.175Z,86.22
2018-12-04T08:25:20.625Z,86.48
2018-12-04T08:27:48.044Z,86.55
2018-12-04T08:30:30.393Z,86.11
2018-12-04T08:33:04.874Z,86.62
2018-12-04T08:35:32.297Z,86.39
2018-12-04T08:37:59.746Z,86.61
2018-12-04T08:40:27.170Z,86.70
2018-12-04T08:42:54.706Z,86.46
2018-12-04T08:45:22.114Z,86.82
2018-12-04T08:47:49.640Z,86.66
2018-12-04T08:50:23.891Z,86.67
2018-12-04T08:52:51.422Z,86.72
2018-12-04T08:55:18.870Z,86.54
2018-12-04T09:00:20.105Z,86.87
2018-12-04T09:02:47.671Z,87.05
2018-12-04T09:05:15.153Z,87.28
2018-12-04T09:07:42.731Z,87.01
2018-12-04T09:10:10.159Z,87.23
2018-12-04T09:12:37.598Z,87.11
2018-12-04T09:15:14.488Z,87.14
2018-12-04T09:17:41.922Z,87.16
2018-12-04T09:20:09.397Z,86.88
2018-12-04T09:22:36.953Z,87.19
2018-12-04T09:25:11.133Z,86.78
2018-12-04T09:27:42.572Z,87.00
2018-12-04T09:30:10.665Z,86.74
2018-12-04T09:32:38.212Z,86.69
2018-12-04T09:35:05.799Z,86.74
2018-12-04T09:37:33.248Z,86.26
2018-12-04T09:40:00.661Z,86.17
2018-12-04T09:42:28.196Z,86.20
2018-12-04T09:44:55.649Z,85.63
2018-12-04T09:47:28.122Z,85.22
2018-12-04T09:49:55.776Z,85.90
2018-12-04T09:52:25.042Z,85.80
2018-12-04T09:54:52.444Z,85.38
2018-12-04T09:57:21.810Z,85.27
2018-12-04T09:59:50.089Z,85.07
2018-12-04T10:02:17.555Z,85.11
2018-12-04T10:04:44.983Z,84.19
2018-12-04T10:07:12.411Z,83.80
2018-12-04T10:09:44.884Z,83.06
2018-12-04T10:12:17.288Z,83.43
2018-12-04T10:14:44.702Z,84.05
2018-12-04T10:17:12.138Z,83.42
2018-12-04T10:19:39.562Z,82.92
2018-12-04T10:22:06.992Z,82.33
2018-12-04T10:24:34.431Z,82.78
2018-12-04T10:27:01.932Z,82.23
2018-12-04T10:29:29.439Z,82.21
2018-12-04T10:32:03.690Z,81.05
2018-12-04T10:34:31.105Z,80.08
2018-12-04T10:37:03.546Z,80.01
2018-12-04T10:39:31.011Z,79.34
2018-12-04T10:41:58.443Z,78.12
2018-12-04T10:44:25.876Z,77.74
2018-12-04T10:46:53.294Z,77.92
2018-12-04T10:49:20.751Z,78.21
2018-12-04T10:51:48.170Z,76.74
2018-12-04T10:54:15.630Z,76.71
2018-12-04T10:56:43.152Z,75.90
2018-12-04T10:59:10.812Z,75.52
2018-12-04T11:01:44.841Z,75.68
2018-12-04T11:04:12.516Z,74.91
2018-12-04T11:06:49.522Z,74.81
2018-12-04T11:09:21.217Z,73.78
2018-12-04T11:11:48.705Z,73.07
2018-12-04T11:14:16.165Z,72.20
2018-12-04T11:16:43.606Z,72.25
2018-12-04T11:19:16.983Z,71.26
2018-12-04T11:21:52.493Z,71.01
2018-12-04T11:24:19.930Z,70.44
2018-12-04T11:26:47.386Z,70.37
2018-12-04T11:29:14.836Z,70.07
2018-12-04T11:31:44.140Z,69.65
2018-12-04T11:34:11.555Z,69.30
2018-12-04T11:37:00.967Z,68.03
2018-12-04T11:39:29.203Z,66.36
2018-12-04T11:42:00.754Z,66.18
2018-12-04T11:44:28.186Z,66.74
2018-12-04T11:46:55.637Z,66.67
2018-12-04T11:49:23.077Z,65.30
2018-12-04T11:51:50.513Z,65.66
2018-12-04T11:54:17.944Z,64.52
2018-12-04T11:56:45.369Z,63.86
2018-12-04T11:59:12.810Z,63.91
2018-12-04T12:01:40.234Z,63.36
2018-12-04T12:04:07.660Z,61.68
2018-12-04T12:06:35.122Z,60.97
2018-12-04T12:09:02.555Z,62.06
2018-12-04T12:11:34.955Z,61.17
2018-12-04T12:14:02.474Z,61.17
2018-12-04T12:16:29.890Z,60.28
2018-12-04T12:18:57.436Z,59.46
2018-12-04T12:21:24.864Z,60.09
2018-12-04T12:23:52.322Z,57.87
2018-12-04T12:26:19.747Z,57.66
2018-12-04T12:28:47.169Z,58.03
2018-12-04T12:31:14.833Z,58.45
2018-12-04T12:33:42.270Z,58.29
2018-12-04T12:36:14.487Z,57.20
2018-12-04T12:38:41.911Z,57.06
2018-12-04T12:41:09.328Z,56.56
2018-12-04T12:43:36.786Z,56.85
2018-12-04T12:46:07.093Z,56.73
2018-12-04T12:48:38.720Z,57.48
2018-12-04T12:51:06.128Z,57.61
2018-12-04T12:53:35.442Z,58.59
2018-12-04T12:56:02.874Z,58.62
2018-12-04T12:58:30.338Z,59.00
2018-12-04T13:00:57.776Z,58.99
2018-12-04T13:03:25.417Z,58.92
2018-12-04T13:05:52.859Z,60.62
2018-12-04T13:08:20.312Z,61.00
2018-12-04T13:10:51.948Z,61.25
2018-12-04T13:13:19.498Z,60.57
2018-12-04T13:15:47.065Z,60.84
2018-12-04T13:18:29.554Z,59.90
2018-12-04T13:20:57.946Z,59.82
2018-12-04T13:23:25.356Z,59.84
2018-12-04T13:25:52.798Z,60.57
2018-12-04T13:28:20.367Z,60.73
2018-12-04T13:30:53.019Z,61.17
2018-12-04T13:33:20.540Z,62.24
2018-12-04T13:35:47.990Z,62.93
2018-12-04T13:38:15.502Z,62.96
2018-12-04T13:40:42.958Z,63.23
2018-12-04T13:43:10.481Z,63.50
2018-12-04T13:48:28.627Z,64.22
2018-12-04T13:50:56.101Z,64.53
2018-12-04T13:53:23.627Z,64.71
2018-12-04T13:55:51.143Z,64.62
2018-12-04T13:58:18.639Z,64.82
2018-12-04T14:00:46.460Z,64.91
2018-12-04T14:03:16.896Z,65.15
2018-12-04T14:05:47.692Z,65.35
2018-12-04T14:08:15.227Z,65.62
2018-12-04T14:10:42.897Z,66.07
2018-12-04T14:13:15.301Z,65.98
2018-12-04T14:15:42.796Z,66.27
2018-12-04T14:18:10.242Z,66.37
2018-12-04T14:20:37.679Z,66.48
2018-12-04T14:23:05.234Z,67.07
2018-12-04T14:25:32.774Z,67.06
2018-12-04T14:28:15.398Z,67.61
2018-12-04T14:30:42.847Z,67.46
2018-12-04T14:33:10.429Z,67.50
2018-12-04T14:35:37.987Z,68.06
2018-12-04T14:38:05.598Z,68.42
2018-12-04T14:40:33.039Z,68.91
2018-12-04T14:43:00.543Z,68.97
2018-12-04T14:45:27.991Z,69.00
2018-12-04T14:47:55.571Z,69.33
2018-12-04T14:50:23.099Z,69.65
2018-12-04T14:52:50.638Z,69.70
2018-12-04T14:55:18.311Z,69.62
2018-12-04T14:57:45.832Z,69.43
2018-12-04T15:00:13.824Z,69.54
2018-12-04T15:02:41.257Z,69.65
2018-12-04T15:05:08.792Z,69.83
2018-12-04T15:10:11.487Z,69.70
2018-12-04T15:12:43.148Z,70.35
2018-12-04T15:15:10.829Z,70.02
2018-12-04T15:17:38.267Z,70.54
2018-12-04T15:20:06.714Z,70.93
2018-12-04T15:22:34.267Z,70.39
2018-12-04T15:25:01.818Z,70.64
2018-12-04T15:27:29.367Z,70.35
2018-12-04T15:30:00.858Z,70.25
2018-12-04T15:32:28.396Z,70.08
2018-12-04T15:34:55.934Z,70.76
2018-12-04T15:37:26.469Z,70.38
2018-12-04T15:39:53.943Z,70.65
2018-12-04T15:42:29.977Z,70.80
2018-12-04T15:44:57.517Z,70.43
2018-12-04T15:47:25.081Z,70.60
2018-12-04T15:49:54.524Z,70.56
2018-12-04T15:52:22.158Z,70.51
2018-12-04T15:54:49.660Z,70.30
2018-12-04T15:57:21.076Z,70.87
2018-12-04T15:59:48.773Z,70.65
2018-12-04T16:02:16.226Z,70.60
2018-12-04T16:04:43.647Z,70.81
2018-12-04T16:07:12.085Z,70.78
2018-12-04T16:09:39.544Z,70.91
2018-12-04T16:12:07.161Z,71.34
2018-12-04T16:14:34.577Z,71.50
2018-12-04T16:17:02.036Z,71.00
2018-12-04T16:19:29.462Z,71.43
2018-12-04T16:21:56.919Z,71.19
2018-12-04T16:24:24.351Z,71.40
2018-12-04T16:26:51.785Z,71.47
2018-12-04T16:29:23.269Z,70.82
2018-12-04T16:31:50.742Z,70.83
2018-12-04T16:37:25.578Z,70.87
2018-12-04T16:39:53.012Z,71.07
2018-12-04T16:42:26.479Z,71.48
2018-12-04T16:47:32.248Z,71.26
2018-12-04T17:00:52.034Z,72.19
2018-12-04T17:03:26.458Z,72.12
2018-12-04T17:14:26.241Z,72.17
2018-12-04T17:25:25.781Z,73.08
2018-12-04T17:30:39.352Z,73.63
2018-12-04T17:33:27.355Z,73.67
2018-12-04T17:49:37.870Z,74.05
2018-12-04T17:52:05.404Z,74.44
2018-12-04T17:54:32.827Z,74.64
2018-12-04T17:59:40.775Z,74.73
2018-12-04T18:02:26.264Z,75.26
2018-12-04T18:13:06.093Z,75.33
2018-12-04T18:15:33.522Z,75.39
2018-12-04T18:18:00.987Z,75.55
2018-12-04T18:20:28.399Z,75.50
2018-12-04T18:22:55.907Z,75.58
2018-12-04T18:27:57.298Z,75.95
2018-12-04T18:30:24.969Z,75.90
2018-12-04T18:32:52.413Z,76.27
2018-12-04T18:35:19.859Z,75.94
2018-12-04T18:37:47.289Z,75.84
2018-12-04T18:40:14.822Z,76.27
2018-12-04T18:42:42.272Z,76.34
2018-12-04T18:45:13.816Z,76.43
2018-12-04T18:47:41.244Z,76.43
2018-12-04T18:50:16.613Z,76.62
2018-12-04T18:52:50.007Z,76.58
2018-12-04T18:55:19.626Z,76.93
2018-12-04T19:00:22.137Z,77.18
2018-12-04T19:02:49.559Z,76.89
2018-12-04T19:05:17.147Z,76.94
2018-12-04T19:07:44.666Z,77.22
2018-12-04T19:10:12.114Z,77.35
2018-12-04T19:12:39.534Z,77.23
2018-12-04T19:17:40.972Z,77.31
2018-12-04T19:20:12.841Z,76.99
2018-12-04T19:22:41.968Z,77.00
2018-12-04T19:25:09.753Z,77.15
2018-12-04T19:27:41.227Z,77.26
2018-12-04T19:30:12.954Z,77.32
2018-12-04T19:32:40.511Z,77.50
2018-12-04T19:35:09.216Z,77.34
2018-12-04T19:37:36.708Z,77.31
2018-12-04T19:42:43.687Z,76.97
2018-12-04T19:45:11.188Z,76.64
2018-12-04T19:47:38.659Z,76.63
2018-12-04T19:50:06.807Z,76.72
2018-12-04T19:52:34.414Z,77.13
2018-12-04T19:55:05.964Z,76.69
2018-12-04T19:57:34.283Z,76.86
2018-12-04T20:00:01.722Z,76.58
2018-12-04T20:02:29.215Z,76.93
2018-12-04T20:04:56.640Z,76.81
2018-12-04T20:07:24.057Z,76.95
2018-12-04T20:09:51.478Z,76.99
2018-12-04T20:12:18.938Z,76.69
2018-12-04T20:14:46.364Z,76.82
2018-12-04T20:17:13.849Z,76.73
2018-12-04T20:19:41.308Z,76.73
2018-12-04T20:22:08.828Z,76.68
2018-12-04T20:24:36.382Z,76.57
2018-12-04T20:27:04.063Z,76.78
2018-12-04T20:29:31.664Z,77.07
2018-12-04T20:31:59.151Z,76.65
2018-12-04T20:34:26.674Z,76.56
2018-12-04T20:36:54.260Z,77.07
2018-12-04T20:42:56.425Z,77.27
2018-12-04T20:45:23.878Z,76.52
2018-12-04T20:47:51.333Z,77.04
2018-12-04T20:50:18.789Z,77.52
2018-12-04T20:52:46.386Z,77.61
2018-12-04T20:55:13.892Z,77.36
2018-12-04T20:57:41.423Z,77.83
2018-12-04T21:00:14.485Z,77.82
2018-12-04T21:02:42.004Z,78.16
2018-12-04T21:05:16.451Z,78.26
2018-12-04T21:07:49.940Z,78.50
2018-12-04T21:10:17.486Z,78.65
2018-12-04T21:12:44.988Z,78.85
2018-12-04T21:15:12.424Z,79.11
2018-12-04T21:17:39.859Z,79.45
2018-12-04T21:20:11.423Z,79.24
2018-12-04T21:22:40.796Z,79.19
2018-12-04T21:25:08.264Z,79.29
2018-12-04T21:27:41.297Z,79.48
2018-12-04T21:30:15.700Z,79.34
2018-12-04T21:32:55.944Z,79.61
2018-12-04T21:35:31.077Z,79.59
2018-12-04T21:38:04.768Z,79.45
2018-12-04T21:40:37.829Z,79.57
2018-12-04T21:43:11.003Z,79.72
2018-12-04T21:48:50.572Z,80.17
2018-12-04T21:51:18.009Z,79.98
2018-12-04T21:53:45.629Z,79.69
2018-12-04T21:56:13.054Z,80.37
2018-12-04T21:58:40.518Z,80.11
2018-12-04T22:01:08.034Z,80.06
2018-12-04T22:03:35.491Z,80.68
2018-12-04T22:06:02.905Z,80.71
2018-12-04T22:08:30.346Z,80.60
2018-12-04T22:13:32.747Z,81.11
2018-12-04T22:16:00.189Z,80.66
2018-12-04T22:18:27.739Z,80.67
2018-12-04T22:20:55.300Z,80.94
2018-12-04T22:23:22.809Z,80.48
2018-12-04T22:25:50.249Z,80.82
2018-12-04T22:28:17.783Z,80.52
2018-12-04T22:30:45.215Z,80.81
2018-12-04T22:33:12.638Z,80.82
2018-12-04T22:35:42.013Z,80.91
2018-12-04T22:38:09.432Z,80.76
2018-12-04T22:40:36.899Z,80.57
2018-12-04T22:43:04.326Z,81.02
2018-12-04T22:45:47.048Z,81.25
2018-12-04T22:48:14.462Z,81.02
2018-12-04T22:50:42.093Z,80.90
2018-12-04T22:53:09.539Z,80.81
2018-12-04T22:55:36.991Z,80.91
2018-12-04T22:58:04.457Z,80.91
2018-12-04T23:00:38.100Z,80.97
2018-12-04T23:03:05.630Z,80.50
2018-12-04T23:05:33.082Z,80.52
2018-12-04T23:08:00.513Z,81.11
2018-12-04T23:10:28.035Z,80.69
2018-12-04T23:12:55.481Z,80.63
2018-12-04T23:15:22.914Z,80.48
2018-12-04T23:20:51.276Z,80.53
2018-12-04T23:23:18.698Z,80.17
2018-12-04T23:25:46.243Z,80.35
2018-12-04T23:28:21.611Z,80.54
2018-12-04T23:30:49.045Z,80.14
2018-12-04T23:33:16.487Z,80.08
2018-12-04T23:38:48.716Z,80.07
2018-12-04T23:41:16.228Z,79.68
2018-12-04T23:43:43.657Z,79.97
2018-12-04T23:46:18.985Z,79.94
2018-12-04T23:48:46.734Z,79.56
2018-12-04T23:51:14.184Z,79.85
2018-12-04T23:53:41.625Z,79.87
2018-12-04T23:56:09.147Z,80.06
2018-12-04T23:58:40.542Z,79.99
